Time;durP1;ratioP1;P1;durP2;ratioP2;P2;SDS_P1;SDS_P2;PMS_P1;PMS_P2;Temp;Humidity;BMP_temperature;BMP_pressure;BME280_temperature;BME280_humidity;BME280_pressure;Samples;Min_cycle;Max_cycle;Signal;HPM_P1;HPM_P2
2022/06/18 00:00:03;;;;;;;;;;;;;;;24.44;53.27;101419.13;1044719;28;712;-75
2022/06/18 00:00:55;;;;;;;;;;;;;;;24.43;52.96;101420.16;1043573;28;1705;-75
2022/06/18 00:01:45;;;;;;;;;;;;;;;24.44;52.97;101418.28;1042190;28;673;-76
2022/06/18 00:02:36;;;;;;;;;;;;;;;24.46;52.95;101418.97;1037486;28;873;-76
2022/06/18 00:03:27;;;;;;;;;;;;;;;24.44;52.97;101418.28;1038217;28;634;-73
2022/06/18 00:04:17;;;;;;;;;;;;;;;24.42;53.26;101423.91;1042751;28;733;-73
2022/06/18 00:05:08;;;;;;;;;;;;;;;24.42;53.42;101415.72;1038292;28;673;-73
2022/06/18 00:05:58;;;;;;;;;;;;;;;24.42;53.14;101423.06;1038250;28;787;-73
2022/06/18 00:06:50;;;;;;;;;;;;;;;24.41;52.99;101424.09;1042304;28;780;-73
2022/06/18 00:07:40;;;;;;;;;;;;;;;24.43;53.03;101417.44;1042592;28;622;-73
2022/06/18 00:08:30;;;;;;;;;;;;;;;24.42;53.26;101420.34;1038147;28;704;-73
2022/06/18 00:09:21;;;;;;;;;;;;;;;24.40;52.92;101416.94;1038321;28;723;-73
2022/06/18 00:10:11;;;;;;;;;;;;;;;24.39;53.32;101421.53;1042092;28;693;-74
2022/06/18 00:14:29;;;;;;;;;;;;;;;24.41;52.84;101415.91;1041228;28;587;-74
2022/06/18 00:15:20;;;;;;;;;;;;;;;24.41;53.31;101422.22;1038502;28;689;-74
2022/06/18 00:16:10;;;;;;;;;;;;;;;24.39;53.26;101412.50;1037909;28;634;-74
2022/06/18 00:17:01;;;;;;;;;;;;;;;24.40;53.18;101417.78;1042198;28;634;-74
2022/06/18 00:17:51;;;;;;;;;;;;;;;24.40;53.27;101420.50;1037205;28;1233;-74
2022/06/18 00:18:42;;;;;;;;;;;;;;;24.40;52.88;101416.94;1038189;28;814;-74
2022/06/18 00:19:32;;;;;;;;;;;;;;;24.40;53.39;101412.34;1041193;28;678;-74
2022/06/18 00:20:22;;;;;;;;;;;;;;;24.41;52.89;101415.91;1037911;28;772;-74
2022/06/18 00:21:13;;;;;;;;;;;;;;;24.38;53.03;101414.38;1037507;28;650;-74
2022/06/18 00:22:03;;;;;;;;;;;;;;;24.39;53.00;101416.09;1041825;28;1633;-74
2022/06/18 00:22:54;;;;;;;;;;;;;;;24.38;53.33;101416.25;1042650;28;685;-74
2022/06/18 00:23:44;;;;;;;;;;;;;;;24.38;53.02;101422.56;1046046;28;621;-74
2022/06/18 00:24:35;;;;;;;;;;;;;;;24.39;53.27;101417.97;1045834;28;677;-74
2022/06/18 00:25:25;;;;;;;;;;;;;;;24.39;53.11;101413.34;1042485;28;602;-76
2022/06/18 00:26:15;;;;;;;;;;;;;;;24.38;53.28;101410.81;1046489;28;736;-76
2022/06/18 00:27:06;;;;;;;;;;;;;;;24.38;53.12;101408.94;1044741;28;634;-75
2022/06/18 00:27:56;;;;;;;;;;;;;;;24.37;53.46;101403.66;1042647;28;1942;-75
2022/06/18 00:28:47;;;;;;;;;;;;;;;24.35;53.38;101409.31;1042578;28;696;-75
2022/06/18 00:29:37;;;;;;;;;;;;;;;24.37;53.26;101409.94;1040666;28;666;-75
2022/06/18 00:30:28;;;;;;;;;;;;;;;24.36;53.36;101408.28;1045969;28;664;-75
2022/06/18 00:31:18;;;;;;;;;;;;;;;24.35;53.48;101411.19;1045623;28;622;-75
2022/06/18 00:32:08;;;;;;;;;;;;;;;24.33;53.08;101414.09;1041970;28;664;-76
2022/06/18 00:32:59;;;;;;;;;;;;;;;24.33;53.53;101411.34;1045075;28;1569;-75
2022/06/18 00:33:49;;;;;;;;;;;;;;;24.33;53.62;101410.50;1040251;28;1402;-75
2022/06/18 00:34:40;;;;;;;;;;;;;;;24.32;53.56;101412.38;1042740;28;634;-75
2022/06/18 00:35:31;;;;;;;;;;;;;;;24.32;53.40;101409.66;1046470;28;642;-76
2022/06/18 00:36:22;;;;;;;;;;;;;;;24.32;53.22;101409.66;1042525;28;661;-76
2022/06/18 00:37:13;;;;;;;;;;;;;;;24.32;53.37;101409.66;1042527;28;705;-76
2022/06/18 00:38:03;;;;;;;;;;;;;;;24.33;53.22;101414.09;1046313;28;665;-76
2022/06/18 00:38:53;;;;;;;;;;;;;;;24.34;53.23;101409.47;1043454;28;1011;-76
2022/06/18 00:39:44;;;;;;;;;;;;;;;24.35;53.15;101411.19;1042742;28;649;-76
2022/06/18 00:40:35;;;;;;;;;;;;;;;24.35;53.43;101403.00;1045577;28;616;-76
2022/06/18 00:41:25;;;;;;;;;;;;;;;24.36;53.11;101408.28;1050077;28;669;-76
2022/06/18 00:42:16;;;;;;;;;;;;;;;24.35;53.56;101403.88;1050814;28;640;-75
2022/06/18 00:43:06;;;;;;;;;;;;;;;24.34;53.56;101404.88;1049331;28;685;-76
2022/06/18 00:43:58;;;;;;;;;;;;;;;24.34;53.17;101406.75;1049888;28;673;-76
2022/06/18 00:44:53;;;;;;;;;;;;;;;24.34;53.21;101404.88;1050719;28;645;-76
2022/06/18 00:45:44;;;;;;;;;;;;;;;24.32;53.29;101406.94;1044855;28;697;-76
2022/06/18 00:46:35;;;;;;;;;;;;;;;24.31;53.36;101402.50;1045842;28;618;-76
2022/06/18 00:47:25;;;;;;;;;;;;;;;24.30;53.42;101403.53;1047031;28;680;-76
2022/06/18 00:48:16;;;;;;;;;;;;;;;24.32;53.43;101401.47;1049415;28;1941;-76
2022/06/18 00:49:06;;;;;;;;;;;;;;;24.33;52.98;101405.91;1051425;28;676;-76
2022/06/18 00:49:57;;;;;;;;;;;;;;;24.30;53.36;101395.34;1046494;28;682;-76
2022/06/18 00:50:47;;;;;;;;;;;;;;;24.30;53.34;101400.81;1040972;28;1592;-76
2022/06/18 00:51:38;;;;;;;;;;;;;;;24.30;53.61;101402.69;1042599;28;725;-76
2022/06/18 00:52:28;;;;;;;;;;;;;;;24.28;53.33;101399.28;1043183;28;638;-76
2022/06/18 00:53:18;;;;;;;;;;;;;;;24.28;53.35;101400.13;1042212;28;602;-76
2022/06/18 00:54:09;;;;;;;;;;;;;;;24.29;53.43;101406.44;1042930;28;634;-76
2022/06/18 00:54:59;;;;;;;;;;;;;;;24.29;53.18;101401.81;1041163;28;698;-76
2022/06/18 00:55:50;;;;;;;;;;;;;;;24.28;53.35;101396.56;1045522;28;751;-76
2022/06/18 00:56:41;;;;;;;;;;;;;;;24.26;53.47;101394.00;1043005;28;673;-76
2022/06/18 00:57:31;;;;;;;;;;;;;;;24.25;53.61;101391.44;1037311;28;638;-76
2022/06/18 00:58:22;;;;;;;;;;;;;;;24.25;53.31;101400.47;1046045;28;745;-76
2022/06/18 00:59:12;;;;;;;;;;;;;;;24.27;53.28;101392.97;1046270;28;1705;-76
2022/06/18 01:00:02;;;;;;;;;;;;;;;24.28;53.47;101388.38;1041267;28;618;-76
2022/06/18 01:00:53;;;;;;;;;;;;;;;24.24;53.31;101393.31;1042966;28;618;-76
2022/06/18 01:01:43;;;;;;;;;;;;;;;24.25;53.22;101386.84;1041081;28;630;-76
2022/06/18 01:02:34;;;;;;;;;;;;;;;24.26;53.26;101388.56;1040922;28;634;-76
2022/06/18 01:03:24;;;;;;;;;;;;;;;24.28;53.35;101386.50;1042557;28;851;-75
2022/06/18 01:04:15;;;;;;;;;;;;;;;24.30;53.67;101399.97;1041151;28;653;-76
2022/06/18 01:05:05;;;;;;;;;;;;;;;24.27;53.71;101390.25;1041088;28;633;-76
2022/06/18 01:05:55;;;;;;;;;;;;;;;24.25;53.79;101394.19;1042670;28;661;-76
2022/06/18 01:06:46;;;;;;;;;;;;;;;24.26;53.60;101394.00;1041012;28;645;-77
2022/06/18 01:07:36;;;;;;;;;;;;;;;24.27;53.39;101390.25;1042232;28;697;-77
2022/06/18 01:08:27;;;;;;;;;;;;;;;24.30;53.58;101399.97;1041979;28;701;-76
2022/06/18 01:09:17;;;;;;;;;;;;;;;24.28;53.16;101402.00;1045365;28;688;-77
2022/06/18 01:10:08;;;;;;;;;;;;;;;24.30;53.32;101398.09;1042942;28;646;-77
2022/06/18 01:10:58;;;;;;;;;;;;;;;24.30;53.31;101392.63;1038674;28;1517;-77
2022/06/18 01:11:49;;;;;;;;;;;;;;;24.30;53.40;101383.63;1037762;28;642;-77
2022/06/18 01:12:39;;;;;;;;;;;;;;;24.28;53.61;101388.38;1042145;28;1581;-75
2022/06/18 01:13:29;;;;;;;;;;;;;;;24.26;53.52;101388.56;1045767;28;653;-76
2022/06/18 01:14:20;;;;;;;;;;;;;;;24.27;53.59;101394.84;1045217;28;624;-75
2022/06/18 01:15:10;;;;;;;;;;;;;;;24.30;53.34;101398.09;1041625;28;614;-76
2022/06/18 01:16:01;;;;;;;;;;;;;;;24.43;52.39;101390.19;1041314;28;716;-75
2022/06/18 01:16:51;;;;;;;;;;;;;;;24.48;52.62;101387.78;1042257;28;657;-75
2022/06/18 01:17:42;;;;;;;;;;;;;;;24.46;52.75;101391.72;1038490;28;1288;-74
2022/06/18 01:18:32;;;;;;;;;;;;;;;24.52;52.42;101389.16;1040665;28;669;-75
2022/06/18 01:19:22;;;;;;;;;;;;;;;24.44;53.25;101391.88;1046725;28;725;-75
2022/06/18 01:20:13;;;;;;;;;;;;;;;24.36;53.13;101394.66;1046066;28;701;-75
2022/06/18 01:21:04;;;;;;;;;;;;;;;24.39;52.81;101396.16;1039588;28;668;-75
2022/06/18 01:21:55;;;;;;;;;;;;;;;24.48;51.88;101393.25;1043072;28;677;-75
2022/06/18 01:22:45;;;;;;;;;;;;;;;24.49;51.83;101394.94;1041498;28;669;-76
2022/06/18 01:23:36;;;;;;;;;;;;;;;24.46;52.83;101386.28;1040745;28;634;-75
2022/06/18 01:24:26;;;;;;;;;;;;;;;24.44;51.82;101391.03;1047526;28;626;-76
2022/06/18 01:25:17;;;;;;;;;;;;;;;24.46;51.77;101387.13;1044740;28;681;-75
2022/06/18 01:26:07;;;;;;;;;;;;;;;24.51;51.81;101400.22;1040672;28;634;-78
2022/06/18 01:26:57;;;;;;;;;;;;;;;24.51;52.25;101392.91;1041702;28;665;-77
2022/06/18 01:27:48;;;;;;;;;;;;;;;24.56;51.72;101392.34;1044612;28;661;-78
2022/06/18 01:28:38;;;;;;;;;;;;;;;24.46;52.92;101395.28;1046066;28;752;-78
2022/06/18 01:29:29;;;;;;;;;;;;;;;24.40;53.25;101390.53;1040809;28;713;-78
2022/06/18 01:30:20;;;;;;;;;;;;;;;24.44;51.73;101394.63;1040511;28;1573;-78
2022/06/18 01:31:11;;;;;;;;;;;;;;;24.43;52.39;101390.19;1047606;28;661;-78
2022/06/18 01:32:01;;;;;;;;;;;;;;;24.37;53.14;101380.00;1040757;28;654;-77
2022/06/18 01:32:52;;;;;;;;;;;;;;;24.44;52.24;101381.00;1045408;28;787;-77
2022/06/18 01:33:43;;;;;;;;;;;;;;;24.50;51.36;101383.03;1050745;28;689;-78
2022/06/18 01:34:33;;;;;;;;;;;;;;;24.56;51.58;101384.16;1045074;28;637;-77
2022/06/18 01:35:24;;;;;;;;;;;;;;;24.52;51.80;101378.25;1047007;28;716;-78
2022/06/18 01:36:14;;;;;;;;;;;;;;;24.53;51.28;101374.50;1047215;28;618;-78
2022/06/18 01:37:04;;;;;;;;;;;;;;;24.46;52.15;101378.94;1041183;28;709;-78
2022/06/18 01:37:55;;;;;;;;;;;;;;;24.37;53.12;101382.72;1043112;28;788;-79
2022/06/18 01:38:45;;;;;;;;;;;;;;;24.46;51.84;101372.66;1047350;28;1631;-78
2022/06/18 01:39:36;;;;;;;;;;;;;;;24.45;52.08;101376.38;1046591;28;685;-78
2022/06/18 01:40:26;;;;;;;;;;;;;;;24.49;51.74;101378.59;1048798;28;1666;-78
2022/06/18 01:42:26;;;;;;;;;;;;;;;24.39;52.57;101372.50;1042201;28;873;-77
2022/06/18 01:43:17;;;;;;;;;;;;;;;24.44;52.07;101371.97;1043048;28;635;-78
2022/06/18 01:44:07;;;;;;;;;;;;;;;24.44;52.84;101371.97;1042929;28;666;-77
2022/06/18 01:44:58;;;;;;;;;;;;;;;24.50;51.66;101372.13;1045937;28;646;-78
2022/06/18 01:45:48;;;;;;;;;;;;;;;24.48;51.88;101370.59;1046858;28;630;-78
2022/06/18 01:46:38;;;;;;;;;;;;;;;24.46;51.39;101378.09;1046837;28;657;-78
2022/06/18 01:47:29;;;;;;;;;;;;;;;24.39;52.01;101367.03;1042759;28;713;-78
2022/06/18 01:48:19;;;;;;;;;;;;;;;24.36;52.16;101366.56;1042121;28;1882;-78
2022/06/18 01:49:10;;;;;;;;;;;;;;;24.38;51.79;101370.78;1046450;28;630;-77
2022/06/18 01:50:01;;;;;;;;;;;;;;;24.43;51.78;101370.28;1042638;28;1580;-78
2022/06/18 01:50:51;;;;;;;;;;;;;;;24.37;52.56;101366.38;1042256;28;1046;-78
2022/06/18 01:51:42;;;;;;;;;;;;;;;24.42;51.57;101369.41;1045393;28;602;-77
2022/06/18 01:52:32;;;;;;;;;;;;;;;24.39;52.10;101374.38;1046678;28;752;-78
2022/06/18 01:53:22;;;;;;;;;;;;;;;24.41;51.92;101366.88;1046663;28;693;-78
2022/06/18 01:54:13;;;;;;;;;;;;;;;24.33;51.92;101364.19;1040974;28;693;-78
2022/06/18 01:55:03;;;;;;;;;;;;;;;24.30;51.84;101368.13;1041637;28;646;-77
2022/06/18 01:55:54;;;;;;;;;;;;;;;24.32;51.76;101368.78;1046914;28;689;-78
2022/06/18 01:56:44;;;;;;;;;;;;;;;24.35;51.74;101370.31;1041936;28;631;-78
2022/06/18 01:57:35;;;;;;;;;;;;;;;24.32;52.09;101367.94;1041885;28;613;-78
2022/06/18 01:58:25;;;;;;;;;;;;;;;24.31;51.99;101371.69;1046766;28;1572;-78
2022/06/18 01:59:15;;;;;;;;;;;;;;;24.31;52.12;101367.09;1048004;28;639;-78
2022/06/18 02:00:07;;;;;;;;;;;;;;;24.31;51.81;101364.38;1047426;28;689;-78
2022/06/18 02:00:57;;;;;;;;;;;;;;;24.30;52.42;101373.56;1046198;28;759;-78
2022/06/18 02:01:48;;;;;;;;;;;;;;;24.23;53.86;101365.25;1039348;28;619;-78
2022/06/18 02:02:39;;;;;;;;;;;;;;;24.34;52.25;101372.19;1038404;28;702;-78
2022/06/18 02:03:29;;;;;;;;;;;;;;;24.33;53.83;101373.22;1042887;28;755;-78
2022/06/18 02:04:19;;;;;;;;;;;;;;;24.33;53.44;101375.94;1042679;28;704;-78
2022/06/18 02:05:10;;;;;;;;;;;;;;;24.36;51.81;101372.03;1038993;28;708;-78
2022/06/18 02:06:00;;;;;;;;;;;;;;;24.35;52.26;101375.75;1038346;28;622;-76
2022/06/18 02:06:52;;;;;;;;;;;;;;;24.36;51.81;101372.88;1046573;28;640;-77
2022/06/18 02:07:43;;;;;;;;;;;;;;;24.31;52.32;101368.97;1043311;28;717;-80
2022/06/18 02:08:33;;;;;;;;;;;;;;;24.27;52.70;101375.78;1039754;28;606;-81
2022/06/18 02:09:24;;;;;;;;;;;;;;;24.21;52.65;101371.84;1042401;28;599;-78
2022/06/18 02:10:14;;;;;;;;;;;;;;;24.23;52.43;101370.69;1043137;28;654;-78
2022/06/18 02:11:05;;;;;;;;;;;;;;;24.29;52.50;101371.00;1043234;28;611;-78
2022/06/18 02:11:55;;;;;;;;;;;;;;;24.29;52.93;101371.88;1038270;28;806;-78
2022/06/18 02:12:46;;;;;;;;;;;;;;;24.32;52.13;101365.22;1043722;28;668;-78
2022/06/18 02:13:36;;;;;;;;;;;;;;;24.27;52.71;101368.47;1042615;28;662;-78
2022/06/18 02:14:27;;;;;;;;;;;;;;;24.24;52.50;101371.53;1034384;28;646;-79
2022/06/18 02:15:17;;;;;;;;;;;;;;;24.26;52.78;101366.75;1040001;28;681;-78
2022/06/18 02:16:08;;;;;;;;;;;;;;;24.28;52.61;101364.72;1041419;28;658;-77
2022/06/18 02:16:58;;;;;;;;;;;;;;;24.29;52.81;101369.13;1038037;28;623;-77
2022/06/18 02:17:49;;;;;;;;;;;;;;;24.22;53.32;101371.69;1038462;28;1197;-79
2022/06/18 02:18:39;;;;;;;;;;;;;;;24.27;52.70;101373.91;1038918;28;670;-79
2022/06/18 02:19:29;;;;;;;;;;;;;;;24.29;52.31;101369.13;1038753;28;689;-79
2022/06/18 02:20:20;;;;;;;;;;;;;;;24.31;52.35;101363.53;1047084;28;1381;-79
2022/06/18 02:21:10;;;;;;;;;;;;;;;24.26;53.68;101365.91;1045760;28;642;-79
2022/06/18 02:22:01;;;;;;;;;;;;;;;24.28;53.28;101367.44;1042374;28;900;-79
2022/06/18 02:22:52;;;;;;;;;;;;;;;24.28;54.08;101363.88;1042121;28;630;-78
2022/06/18 02:23:42;;;;;;;;;;;;;;;24.25;54.05;101369.66;1042594;28;669;-79
2022/06/18 02:24:33;;;;;;;;;;;;;;;24.20;54.03;101373.72;1039091;28;748;-78
2022/06/18 02:25:23;;;;;;;;;;;;;;;24.23;53.09;101364.34;1037259;28;729;-80
2022/06/18 02:26:13;;;;;;;;;;;;;;;24.22;54.37;101368.09;1038007;28;642;-79
2022/06/18 02:27:04;;;;;;;;;;;;;;;24.27;52.87;101368.47;1041997;28;713;-79
2022/06/18 02:27:54;;;;;;;;;;;;;;;24.27;52.57;101373.06;1041529;28;1910;-79
2022/06/18 02:28:45;;;;;;;;;;;;;;;24.29;52.80;101371.88;1046073;28;626;-78
2022/06/18 02:29:35;;;;;;;;;;;;;;;24.28;52.85;101366.59;1046614;28;781;-79
2022/06/18 02:30:26;;;;;;;;;;;;;;;24.23;52.91;101375.25;1046012;28;653;-78
2022/06/18 02:31:16;;;;;;;;;;;;;;;24.20;53.06;101371.00;1047601;28;666;-78
2022/06/18 02:32:07;;;;;;;;;;;;;;;24.23;52.81;101372.53;1045877;28;685;-78
2022/06/18 02:32:59;;;;;;;;;;;;;;;24.22;52.77;101373.53;1045769;28;662;-78
2022/06/18 02:33:49;;;;;;;;;;;;;;;24.23;52.93;101367.06;1047837;28;645;-78
2022/06/18 02:34:40;;;;;;;;;;;;;;;24.26;52.81;101372.22;1041914;28;705;-78
2022/06/18 02:35:30;;;;;;;;;;;;;;;24.26;52.54;101366.75;1041851;28;523;-78
2022/06/18 02:36:20;;;;;;;;;;;;;;;24.24;53.14;101366.09;1043096;28;748;-78
2022/06/18 02:37:11;;;;;;;;;;;;;;;24.24;52.60;101363.38;1041152;28;649;-78
2022/06/18 02:38:01;;;;;;;;;;;;;;;24.22;53.12;101368.09;1046274;28;803;-78
2022/06/18 02:38:52;;;;;;;;;;;;;;;24.19;53.27;101363.00;1046670;28;670;-78
2022/06/18 02:39:42;;;;;;;;;;;;;;;24.21;52.87;101364.53;1045676;28;669;-78
2022/06/18 02:40:33;;;;;;;;;;;;;;;24.24;52.96;101368.81;1046972;28;678;-78
2022/06/18 02:41:23;;;;;;;;;;;;;;;24.26;52.86;101365.91;1045874;28;638;-78
2022/06/18 02:42:14;;;;;;;;;;;;;;;24.27;53.10;101368.47;1045707;28;603;-78
2022/06/18 02:43:05;;;;;;;;;;;;;;;24.19;52.86;101371.16;1047305;28;618;-78
2022/06/18 02:43:55;;;;;;;;;;;;;;;24.16;53.09;101368.81;1045719;28;642;-78
2022/06/18 02:44:46;;;;;;;;;;;;;;;24.17;52.77;101371.38;1045698;28;701;-78
2022/06/18 02:45:36;;;;;;;;;;;;;;;24.11;53.56;101369.34;1044545;28;685;-77
2022/06/18 02:46:26;;;;;;;;;;;;;;;24.12;53.08;101370.19;1041349;28;662;-77
2022/06/18 02:47:17;;;;;;;;;;;;;;;24.06;54.02;101371.72;1046968;28;700;-77
2022/06/18 02:48:09;;;;;;;;;;;;;;;24.11;53.56;101369.34;1042662;28;1919;-77
2022/06/18 02:49:00;;;;;;;;;;;;;;;24.17;52.94;101374.09;1041190;28;622;-77
2022/06/18 02:49:51;;;;;;;;;;;;;;;24.20;52.94;101378.31;1045946;28;1623;-77
2022/06/18 02:50:41;;;;;;;;;;;;;;;24.16;53.01;101374.28;1038833;28;606;-77
2022/06/18 02:51:32;;;;;;;;;;;;;;;24.18;53.22;101381.22;1034772;28;673;-78
2022/06/18 02:52:22;;;;;;;;;;;;;;;24.09;53.31;101379.56;1039625;28;614;-78
2022/06/18 02:53:13;;;;;;;;;;;;;;;24.15;53.03;101378.88;1042220;28;1055;-79
2022/06/18 02:54:03;;;;;;;;;;;;;;;24.15;53.45;101372.56;1042172;28;624;-78
2022/06/18 02:54:54;;;;;;;;;;;;;;;24.13;53.53;101366.44;1040928;28;1342;-76
2022/06/18 02:55:44;;;;;;;;;;;;;;;24.16;53.59;101377.84;1041294;28;613;-76
2022/06/18 02:56:35;;;;;;;;;;;;;;;24.17;53.41;101379.53;1041860;28;775;-76
2022/06/18 02:57:26;;;;;;;;;;;;;;;24.15;52.99;101375.28;1042553;28;653;-76
2022/06/18 02:58:17;;;;;;;;;;;;;;;24.08;54.43;101377.00;1041165;28;590;-76
2022/06/18 02:59:08;;;;;;;;;;;;;;;24.14;53.59;101374.44;1047213;28;692;-76
2022/06/18 02:59:58;;;;;;;;;;;;;;;24.18;53.24;101374.94;1046511;28;647;-76
2022/06/18 03:00:49;;;;;;;;;;;;;;;24.15;53.64;101378.00;1045294;28;637;-76
2022/06/18 03:01:39;;;;;;;;;;;;;;;24.08;53.56;101375.13;1046705;28;724;-73
2022/06/18 03:02:29;;;;;;;;;;;;;;;24.05;53.50;101380.91;1046274;28;640;-77
2022/06/18 03:03:20;;;;;;;;;;;;;;;23.98;53.71;101376.38;1048877;28;637;-74
2022/06/18 03:04:10;;;;;;;;;;;;;;;24.00;53.65;101387.94;1050208;28;646;-74
2022/06/18 03:05:01;;;;;;;;;;;;;;;24.00;53.69;101386.06;1041220;28;689;-74
2022/06/18 03:05:54;;;;;;;;;;;;;;;24.02;53.69;101384.00;1045495;28;672;-74
2022/06/18 03:06:44;;;;;;;;;;;;;;;23.97;53.98;101388.28;1046534;28;637;-74
2022/06/18 03:07:35;;;;;;;;;;;;;;;23.98;54.43;101389.97;1045390;28;685;-75
2022/06/18 03:08:25;;;;;;;;;;;;;;;24.03;53.67;101385.69;1041976;28;772;-75
2022/06/18 03:09:16;;;;;;;;;;;;;;;24.02;53.68;101397.59;1046790;28;661;-74
2022/06/18 03:12:25;;;;;;;;;;;;;;;24.12;53.38;101401.00;1045516;28;631;-75
2022/06/18 03:13:18;;;;;;;;;;;;;;;24.11;53.77;101399.28;1050758;28;665;-75
2022/06/18 03:14:08;;;;;;;;;;;;;;;24.10;53.88;101399.47;1049583;28;598;-75
2022/06/18 03:14:59;;;;;;;;;;;;;;;24.10;53.62;101404.91;1049902;28;763;-75
2022/06/18 03:15:49;;;;;;;;;;;;;;;24.05;54.09;101399.13;1049226;28;760;-75
2022/06/18 03:16:39;;;;;;;;;;;;;;;23.96;54.37;101392.03;1048375;28;674;-75
2022/06/18 03:17:30;;;;;;;;;;;;;;;23.90;53.90;101396.28;1046670;28;1125;-75
2022/06/18 03:18:20;;;;;;;;;;;;;;;23.88;54.02;101393.72;1045660;28;681;-75
2022/06/18 03:19:11;;;;;;;;;;;;;;;23.91;54.16;101405.28;1045259;28;656;-75
2022/06/18 03:20:01;;;;;;;;;;;;;;;23.90;54.35;101393.56;1046794;28;673;-75
2022/06/18 03:20:52;;;;;;;;;;;;;;;23.93;53.99;101397.81;1041239;28;756;-75
2022/06/18 03:21:42;;;;;;;;;;;;;;;23.96;54.36;101405.63;1047317;28;716;-75
2022/06/18 03:22:32;;;;;;;;;;;;;;;23.96;54.17;101405.63;1043048;28;621;-75
2022/06/18 03:23:23;;;;;;;;;;;;;;;23.97;54.14;101405.47;1041863;28;634;-75
2022/06/18 03:24:13;;;;;;;;;;;;;;;23.97;54.17;101407.34;1043059;28;629;-74
2022/06/18 03:25:04;;;;;;;;;;;;;;;23.96;54.17;101408.34;1042398;28;687;-75
2022/06/18 03:25:55;;;;;;;;;;;;;;;23.95;53.92;101402.06;1041923;28;626;-75
2022/06/18 03:26:45;;;;;;;;;;;;;;;23.94;54.69;101399.50;1038569;28;657;-76
2022/06/18 03:27:36;;;;;;;;;;;;;;;23.91;54.47;101399.84;1037530;28;610;-76
2022/06/18 03:28:26;;;;;;;;;;;;;;;23.79;54.73;101402.94;1045795;28;658;-76
2022/06/18 03:29:17;;;;;;;;;;;;;;;23.77;54.82;101402.25;1044289;28;708;-76
2022/06/18 03:30:07;;;;;;;;;;;;;;;23.78;54.49;101400.38;1041072;28;1310;-76
2022/06/18 03:30:58;;;;;;;;;;;;;;;23.84;54.73;101402.41;1042658;28;684;-76
2022/06/18 03:31:48;;;;;;;;;;;;;;;23.86;54.49;101405.81;1039166;28;724;-76
2022/06/18 03:32:38;;;;;;;;;;;;;;;23.88;54.18;101398.31;1042340;28;662;-76
2022/06/18 03:33:29;;;;;;;;;;;;;;;23.93;54.12;101395.94;1046496;28;633;-76
2022/06/18 03:34:19;;;;;;;;;;;;;;;23.90;54.37;101404.44;1046887;28;685;-76
2022/06/18 03:35:10;;;;;;;;;;;;;;;23.94;54.44;101403.09;1045805;28;681;-76
2022/06/18 03:36:00;;;;;;;;;;;;;;;23.98;54.45;101400.88;1046309;28;1182;-76
2022/06/18 03:36:50;;;;;;;;;;;;;;;23.98;54.01;101401.72;1034500;28;698;-75
2022/06/18 03:37:41;;;;;;;;;;;;;;;23.92;54.43;101396.09;1038608;28;741;-74
2022/06/18 03:38:31;;;;;;;;;;;;;;;23.94;54.41;101400.34;1039108;28;666;-75
2022/06/18 03:39:22;;;;;;;;;;;;;;;23.93;54.45;101401.38;1038096;28;696;-75
2022/06/18 03:40:12;;;;;;;;;;;;;;;23.91;54.63;101399.84;1039608;28;1713;-75
2022/06/18 03:41:03;;;;;;;;;;;;;;;23.92;54.23;101398.81;1046648;28;673;-77
2022/06/18 03:41:54;;;;;;;;;;;;;;;23.93;54.57;101405.97;1046075;28;665;-76
2022/06/18 03:42:45;;;;;;;;;;;;;;;23.97;54.23;101404.63;1045978;28;661;-77
2022/06/18 03:43:35;;;;;;;;;;;;;;;23.96;54.11;101409.22;1046255;28;641;-77
2022/06/18 03:44:26;;;;;;;;;;;;;;;23.90;54.60;101407.16;1045975;28;728;-76
2022/06/18 03:45:16;;;;;;;;;;;;;;;23.86;54.68;101403.94;1046654;28;685;-76
2022/06/18 03:46:07;;;;;;;;;;;;;;;23.79;54.70;101402.94;1046861;28;596;-76
2022/06/18 03:46:58;;;;;;;;;;;;;;;23.83;54.33;101401.56;1046817;28;614;-76
2022/06/18 03:47:48;;;;;;;;;;;;;;;23.86;54.69;101403.94;1046595;28;748;-76
2022/06/18 03:48:39;;;;;;;;;;;;;;;23.88;54.36;101409.19;1041779;28;776;-76
2022/06/18 03:49:29;;;;;;;;;;;;;;;23.89;54.42;101406.31;1046360;28;630;-76
2022/06/18 03:50:20;;;;;;;;;;;;;;;23.87;54.77;101411.06;1042859;28;711;-76
2022/06/18 03:51:10;;;;;;;;;;;;;;;23.84;54.49;101407.84;1041887;28;684;-76
2022/06/18 03:52:01;;;;;;;;;;;;;;;23.87;54.43;101408.34;1042557;28;668;-75
2022/06/18 03:52:51;;;;;;;;;;;;;;;23.88;54.90;101420.09;1041546;28;658;-76
2022/06/18 03:53:42;;;;;;;;;;;;;;;23.85;54.95;101409.53;1042620;28;806;-75
2022/06/18 03:54:32;;;;;;;;;;;;;;;23.84;55.67;101410.56;1041204;28;646;-76
2022/06/18 03:55:24;;;;;;;;;;;;;;;23.85;55.40;101410.41;1046693;28;602;-76
2022/06/18 03:56:14;;;;;;;;;;;;;;;23.85;55.42;101407.66;1046243;28;761;-76
2022/06/18 03:57:05;;;;;;;;;;;;;;;23.87;55.33;101408.34;1045609;28;670;-75
2022/06/18 03:57:55;;;;;;;;;;;;;;;23.92;54.59;101407.00;1041736;28;630;-76
2022/06/18 03:58:46;;;;;;;;;;;;;;;23.99;54.44;101411.59;1034060;28;658;-76
2022/06/18 03:59:36;;;;;;;;;;;;;;;23.95;55.04;101403.94;1037483;28;771;-76
2022/06/18 04:00:26;;;;;;;;;;;;;;;23.89;55.46;101409.03;1042497;28;693;-76
2022/06/18 04:01:17;;;;;;;;;;;;;;;23.92;54.75;101407.84;1042827;28;698;-76
2022/06/18 04:02:08;;;;;;;;;;;;;;;23.96;54.32;101402.91;1041651;28;677;-75
2022/06/18 04:02:59;;;;;;;;;;;;;;;23.92;55.27;101409.72;1033429;28;630;-75
2022/06/18 04:03:49;;;;;;;;;;;;;;;23.87;55.79;101408.34;1037011;28;734;-75
2022/06/18 04:04:40;;;;;;;;;;;;;;;23.94;55.01;101404.94;1046359;28;692;-75
2022/06/18 04:05:30;;;;;;;;;;;;;;;23.98;54.37;101409.03;1042982;28;614;-76
2022/06/18 04:06:21;;;;;;;;;;;;;;;24.01;54.15;101403.22;1037574;28;716;-76
2022/06/18 04:07:11;;;;;;;;;;;;;;;24.03;54.53;101406.63;1042290;28;701;-76
2022/06/18 04:08:02;;;;;;;;;;;;;;;24.05;54.53;101407.31;1037923;28;1890;-75
2022/06/18 04:08:52;;;;;;;;;;;;;;;23.99;54.82;101403.41;1036895;28;661;-76
2022/06/18 04:09:43;;;;;;;;;;;;;;;23.92;55.09;101404.28;1041722;28;611;-76
2022/06/18 04:10:33;;;;;;;;;;;;;;;23.89;54.53;101400.88;1042832;28;1309;-76
2022/06/18 04:11:24;;;;;;;;;;;;;;;23.95;54.75;101406.66;1041095;28;657;-76
2022/06/18 04:12:14;;;;;;;;;;;;;;;23.95;54.54;101409.38;1037483;28;709;-76
2022/06/18 04:13:05;;;;;;;;;;;;;;;23.94;55.02;101408.53;1045884;28;673;-76
2022/06/18 04:13:55;;;;;;;;;;;;;;;23.94;54.88;101405.81;1050534;28;705;-76
2022/06/18 04:14:45;;;;;;;;;;;;;;;23.92;54.82;101404.28;1042043;28;786;-76
2022/06/18 04:15:36;;;;;;;;;;;;;;;23.96;54.18;101400.19;1045401;28;706;-76
2022/06/18 04:16:26;;;;;;;;;;;;;;;23.92;54.85;101405.13;1044897;28;645;-76
2022/06/18 04:17:17;;;;;;;;;;;;;;;23.91;55.02;101399.84;1050867;28;712;-76
2022/06/18 04:18:07;;;;;;;;;;;;;;;23.90;54.58;101412.59;1044921;28;795;-75
2022/06/18 04:18:58;;;;;;;;;;;;;;;23.84;55.05;101411.41;1046453;28;673;-76
2022/06/18 04:19:48;;;;;;;;;;;;;;;23.88;54.92;101412.78;1043268;28;1635;-76
2022/06/18 04:20:38;;;;;;;;;;;;;;;23.86;55.11;101413.97;1040945;28;653;-76
2022/06/18 04:21:29;;;;;;;;;;;;;;;23.87;54.66;101412.94;1046367;28;624;-76
2022/06/18 04:22:19;;;;;;;;;;;;;;;23.87;54.69;101416.53;1041955;28;685;-76
2022/06/18 04:23:11;;;;;;;;;;;;;;;23.86;54.60;101417.53;1041543;28;674;-76
2022/06/18 04:24:02;;;;;;;;;;;;;;;23.85;54.99;101424.00;1042406;28;748;-75
2022/06/18 04:24:52;;;;;;;;;;;;;;;23.89;54.55;101419.94;1041070;28;819;-75
2022/06/18 04:25:43;;;;;;;;;;;;;;;23.86;55.39;101411.25;1045668;28;748;-75
2022/06/18 04:26:33;;;;;;;;;;;;;;;23.86;55.88;101414.81;1046165;28;646;-76
2022/06/18 04:27:24;;;;;;;;;;;;;;;23.87;55.70;101411.06;1041449;28;614;-76
2022/06/18 04:28:14;;;;;;;;;;;;;;;23.91;55.05;101411.59;1041839;28;1882;-76
2022/06/18 04:29:04;;;;;;;;;;;;;;;23.96;54.49;101411.94;1046146;28;630;-76
2022/06/18 04:29:55;;;;;;;;;;;;;;;23.99;54.87;101416.19;1045247;28;713;-75
2022/06/18 04:30:46;;;;;;;;;;;;;;;23.91;54.66;101410.75;1038610;28;645;-76
2022/06/18 04:31:37;;;;;;;;;;;;;;;23.84;55.51;101410.56;1038740;28;689;-76
2022/06/18 04:32:27;;;;;;;;;;;;;;;23.83;55.20;101415.16;1042057;28;779;-76